Time;durP1;ratioP1;P1;durP2;ratioP2;P2;SDS_P1;SDS_P2;PMS_P1;PMS_P2;Temp;Humidity;BMP_temperature;BMP_pressure;BME280_temperature;BME280_humidity;BME280_pressure;Samples;Min_cycle;Max_cycle;Signal;HPM_P1;HPM_P2
2023/05/24 00:01:30;;;;;;;19.13;5.05;;;9.50;99.90;;;;;;5056846;28;20044;-68
2023/05/24 00:03:59;;;;;;;18.42;4.70;;;9.40;99.90;;;;;;5074792;28;20041;-68
2023/05/24 00:06:26;;;;;;;19.67;4.93;;;9.40;99.90;;;;;;5074355;28;20423;-69
2023/05/24 00:08:52;;;;;;;20.02;5.25;;;9.40;99.90;;;;;;5056595;28;20457;-70
2023/05/24 00:11:18;;;;;;;17.17;5.60;;;9.30;99.90;;;;;;5074723;28;20044;-70
2023/05/24 00:13:44;;;;;;;28.83;5.88;;;9.30;99.90;;;;;;5074495;28;20036;-70
2023/05/24 00:16:10;;;;;;;20.27;6.35;;;9.30;99.90;;;;;;5074457;28;20036;-70
2023/05/24 00:18:39;;;;;;;19.48;6.18;;;9.20;99.90;;;;;;5074606;28;20036;-70
2023/05/24 00:21:08;;;;;;;16.48;5.20;;;9.30;99.90;;;;;;5074428;28;20070;-70
2023/05/24 00:23:35;;;;;;;19.25;5.50;;;9.20;99.90;;;;;;5074608;28;20045;-70
2023/05/24 00:26:02;;;;;;;18.40;6.07;;;9.20;99.90;;;;;;5074068;28;20424;-70
2023/05/24 00:28:27;;;;;;;20.13;5.88;;;9.20;99.90;;;;;;5056337;28;20036;-70
2023/05/24 00:30:53;;;;;;;20.00;5.30;;;9.20;99.90;;;;;;5074492;28;20040;-70
2023/05/24 00:33:18;;;;;;;18.17;5.03;;;9.20;99.90;;;;;;5074296;28;20036;-69
2023/05/24 00:35:44;;;;;;;22.30;5.45;;;9.20;99.90;;;;;;5073858;28;20037;-69
2023/05/24 00:38:09;;;;;;;18.33;5.45;;;9.20;99.90;;;;;;5055999;28;20048;-69
2023/05/24 00:40:35;;;;;;;15.57;5.65;;;9.20;99.90;;;;;;5056078;28;20510;-69
2023/05/24 00:43:01;;;;;;;17.10;5.70;;;9.20;99.90;;;;;;5074163;28;20040;-69
2023/05/24 00:45:26;;;;;;;23.25;6.63;;;9.20;99.90;;;;;;5073885;28;20048;-69
2023/05/24 00:47:52;;;;;;;23.92;6.28;;;9.20;99.90;;;;;;5056257;28;20045;-70
2023/05/24 00:50:19;;;;;;;19.77;6.43;;;9.20;99.90;;;;;;5055937;28;20041;-69
2023/05/24 00:52:48;;;;;;;22.42;6.00;;;9.10;99.90;;;;;;5074072;28;20040;-69
2023/05/24 00:55:14;;;;;;;28.55;6.35;;;9.10;99.90;;;;;;5073941;28;20111;-69
2023/05/24 00:57:40;;;;;;;24.70;5.10;;;9.10;99.90;;;;;;5073377;28;20048;-69
2023/05/24 01:00:10;;;;;;;18.40;5.38;;;9.10;99.90;;;;;;5073821;28;20045;-69
2023/05/24 01:02:36;;;;;;;24.20;6.07;;;9.10;99.90;;;;;;5056171;28;20040;-69
2023/05/24 01:05:02;;;;;;;16.15;5.65;;;9.00;99.90;;;;;;5073562;28;20044;-69
2023/05/24 01:07:53;;;;;;;14.85;5.43;;;9.00;99.90;;;;;;5073294;28;20649;-69
2023/05/24 01:10:50;;;;;;;19.85;5.75;;;9.00;99.90;;;;;;5055828;28;20041;-68
2023/05/24 01:13:43;;;;;;;21.13;5.43;;;9.00;99.90;;;;;;5065396;28;20091;-69
2023/05/24 01:16:37;;;;;;;21.48;5.22;;;8.90;99.90;;;;;;5073435;28;20082;-70
2023/05/24 01:19:26;;;;;;;22.25;5.55;;;8.80;99.90;;;;;;5073325;28;20044;-70
2023/05/24 01:22:30;;;;;;;16.92;5.53;;;8.80;99.90;;;;;;5073334;28;20040;-69
2023/05/24 01:25:03;;;;;;;22.25;6.60;;;8.80;99.90;;;;;;5055303;28;20094;-69
2023/05/24 01:27:32;;;;;;;24.00;7.03;;;8.80;99.90;;;;;;5055047;28;20545;-68
2023/05/24 01:29:58;;;;;;;16.98;5.82;;;8.80;99.90;;;;;;5072944;28;20032;-69
2023/05/24 01:32:25;;;;;;;21.17;6.72;;;8.80;99.90;;;;;;5073021;28;20438;-69
2023/05/24 01:34:51;;;;;;;20.67;5.93;;;8.80;99.90;;;;;;5038377;28;20040;-69
2023/05/24 01:37:16;;;;;;;13.52;4.32;;;8.80;99.90;;;;;;5072866;28;20043;-69
2023/05/24 01:39:42;;;;;;;22.25;6.68;;;8.80;99.90;;;;;;5072852;28;20036;-69
2023/05/24 01:42:23;;;;;;;16.85;5.32;;;8.80;99.90;;;;;;5072876;28;20155;-70
2023/05/24 01:45:00;;;;;;;17.70;5.70;;;8.80;99.90;;;;;;5072721;28;20049;-69
2023/05/24 01:47:34;;;;;;;21.50;5.72;;;8.80;99.90;;;;;;5054772;28;20048;-69
2023/05/24 01:50:13;;;;;;;24.58;5.45;;;8.80;99.90;;;;;;5071973;28;20480;-69
2023/05/24 01:52:42;;;;;;;18.25;4.97;;;8.90;99.90;;;;;;5072766;28;20047;-69
2023/05/24 01:55:09;;;;;;;22.92;6.45;;;8.90;99.90;;;;;;5054612;28;20128;-69
2023/05/24 01:57:36;;;;;;;18.77;6.38;;;8.90;99.90;;;;;;5072517;28;20078;-69
2023/05/24 02:00:04;;;;;;;18.48;6.35;;;9.00;99.90;;;;;;5072641;28;20036;-69
2023/05/24 02:02:29;;;;;;;17.35;5.28;;;9.10;99.90;;;;;;5072610;28;20037;-69
2023/05/24 02:04:55;;;;;;;19.02;5.20;;;9.00;99.90;;;;;;5072390;28;20099;-69
2023/05/24 02:07:21;;;;;;;18.23;4.80;;;9.10;99.90;;;;;;5054166;28;20508;-68
2023/05/24 02:09:47;;;;;;;18.60;5.18;;;9.10;99.90;;;;;;5072423;28;20037;-68
2023/05/24 02:12:12;;;;;;;30.52;5.47;;;9.10;99.90;;;;;;5072457;28;20077;-69
2023/05/24 02:14:38;;;;;;;11.73;4.63;;;9.20;99.90;;;;;;5072371;28;20036;-68
2023/05/24 02:17:04;;;;;;;17.80;5.43;;;9.20;99.90;;;;;;5072140;28;20043;-69
2023/05/24 02:19:30;;;;;;;17.70;5.82;;;9.20;99.90;;;;;;5054257;28;20051;-69
2023/05/24 02:21:55;;;;;;;19.00;6.03;;;9.10;99.90;;;;;;5072018;28;20040;-68
2023/05/24 02:24:21;;;;;;;17.63;5.05;;;9.20;99.90;;;;;;5072001;28;20120;-69
2023/05/24 02:26:47;;;;;;;29.05;7.47;;;9.20;99.90;;;;;;5071973;28;20404;-69
2023/05/24 02:29:13;;;;;;;17.23;4.95;;;9.10;99.90;;;;;;5072052;28;20029;-69
2023/05/24 02:31:38;;;;;;;18.08;4.75;;;9.10;99.90;;;;;;5072070;28;20060;-69
2023/05/24 02:34:04;;;;;;;13.20;4.90;;;9.10;99.90;;;;;;5072024;28;20122;-68
2023/05/24 02:36:31;;;;;;;17.30;4.90;;;9.20;99.90;;;;;;5071717;28;20051;-69
2023/05/24 02:38:57;;;;;;;20.95;7.18;;;9.20;99.90;;;;;;5071559;28;20416;-69
2023/05/24 02:41:22;;;;;;;19.48;5.43;;;9.20;99.90;;;;;;5072001;28;20047;-69
2023/05/24 02:43:48;;;;;;;20.98;5.18;;;9.30;99.90;;;;;;5071894;28;20086;-68
2023/05/24 02:46:15;;;;;;;18.90;4.82;;;9.30;99.90;;;;;;5053745;28;20547;-69
2023/05/24 02:48:40;;;;;;;17.98;4.05;;;9.30;99.90;;;;;;5071676;28;20040;-69
2023/05/24 02:51:06;;;;;;;18.27;5.13;;;9.40;99.90;;;;;;5071672;28;20420;-69
2023/05/24 02:53:32;;;;;;;15.52;4.70;;;9.40;99.90;;;;;;5071884;28;20033;-69
2023/05/24 02:55:58;;;;;;;16.50;4.28;;;9.50;99.90;;;;;;5081217;28;20032;-69
2023/05/24 02:58:27;;;;;;;17.90;4.43;;;9.50;99.90;;;;;;5091825;28;20119;-69
2023/05/24 03:00:53;;;;;;;19.73;6.97;;;9.50;99.90;;;;;;5091843;28;20107;-69
2023/05/24 03:03:19;;;;;;;21.15;4.22;;;9.60;99.90;;;;;;5091888;28;20098;-69
2023/05/24 03:05:45;;;;;;;14.45;3.95;;;9.60;99.90;;;;;;5073182;28;20115;-69
2023/05/24 03:08:11;;;;;;;22.20;4.43;;;9.60;99.90;;;;;;5091588;28;20044;-69
2023/05/24 03:10:36;;;;;;;10.75;3.60;;;9.60;99.90;;;;;;5091840;28;20044;-69
2023/05/24 03:13:02;;;;;;;18.13;4.43;;;9.60;99.90;;;;;;5091788;28;20480;-69
2023/05/24 03:15:27;;;;;;;17.77;3.28;;;9.70;99.90;;;;;;5091548;28;20036;-69
2023/05/24 03:17:53;;;;;;;16.45;5.43;;;9.70;99.90;;;;;;5091459;28;20040;-69
2023/05/24 03:20:19;;;;;;;21.15;4.63;;;9.70;99.90;;;;;;5091716;28;20043;-69
2023/05/24 03:22:45;;;;;;;22.98;4.43;;;9.80;99.90;;;;;;5091817;28;20093;-68
2023/05/24 03:25:11;;;;;;;9.90;4.07;;;9.80;99.90;;;;;;5091722;28;20036;-68
2023/05/24 03:27:36;;;;;;;17.55;4.03;;;9.80;99.90;;;;;;5073154;28;20048;-68
2023/05/24 03:30:05;;;;;;;19.60;3.88;;;9.80;99.90;;;;;;5091651;28;20036;-68
2023/05/24 03:32:31;;;;;;;15.77;4.28;;;9.80;99.90;;;;;;5091518;28;20078;-69
2023/05/24 03:34:58;;;;;;;23.33;4.60;;;9.80;99.90;;;;;;5091268;28;20067;-68
2023/05/24 03:37:23;;;;;;;10.73;4.00;;;9.80;99.90;;;;;;5073380;28;20067;-68
2023/05/24 03:39:49;;;;;;;15.48;5.00;;;9.90;99.90;;;;;;5091342;28;20483;-68
2023/05/24 03:42:15;;;;;;;24.83;5.40;;;9.90;99.90;;;;;;5091571;28;20034;-70
2023/05/24 03:44:40;;;;;;;18.08;3.72;;;9.90;99.90;;;;;;5091495;28;20162;-68
2023/05/24 03:47:06;;;;;;;12.25;5.03;;;10.00;99.90;;;;;;5091187;28;20071;-68
2023/05/24 03:49:31;;;;;;;23.38;4.57;;;10.00;99.90;;;;;;5091141;28;20454;-69
2023/05/24 03:51:57;;;;;;;16.17;4.47;;;10.00;99.90;;;;;;5091810;28;20040;-68
2023/05/24 03:54:23;;;;;;;24.38;4.50;;;10.00;99.90;;;;;;5091541;28;20035;-69
2023/05/24 03:56:48;;;;;;;15.52;4.35;;;10.10;99.90;;;;;;5091291;28;20036;-69
2023/05/24 03:59:14;;;;;;;23.15;4.50;;;10.10;99.90;;;;;;5091923;28;20115;-68
2023/05/24 04:01:40;;;;;;;15.38;4.53;;;10.10;99.90;;;;;;5093783;28;20036;-69
2023/05/24 04:04:05;;;;;;;15.00;4.15;;;10.10;99.90;;;;;;5091739;28;20043;-68
2023/05/24 04:06:31;;;;;;;14.60;4.30;;;10.10;99.90;;;;;;5090990;28;20174;-68
2023/05/24 04:08:58;;;;;;;15.63;4.15;;;10.10;99.90;;;;;;5091180;28;20044;-68
2023/05/24 04:11:27;;;;;;;18.55;4.90;;;10.20;99.90;;;;;;5056253;28;20040;-68
2023/05/24 04:13:56;;;;;;;15.15;4.18;;;10.20;99.90;;;;;;5094690;28;20047;-69
2023/05/24 04:16:23;;;;;;;15.15;4.80;;;10.30;99.90;;;;;;5060072;28;20089;-69
2023/05/24 04:18:55;;;;;;;17.25;5.53;;;10.30;99.90;;;;;;5094486;28;20040;-68
2023/05/24 04:21:21;;;;;;;21.33;5.70;;;10.30;99.90;;;;;;5094749;28;20032;-69
2023/05/24 04:23:46;;;;;;;13.32;4.07;;;10.40;99.90;;;;;;5094738;28;20564;-68
2023/05/24 04:26:14;;;;;;;19.38;5.13;;;10.50;99.90;;;;;;5076255;28;20422;-69
2023/05/24 04:28:40;;;;;;;24.42;4.65;;;10.50;99.90;;;;;;5094471;28;20038;-71
2023/05/24 04:31:06;;;;;;;24.45;5.05;;;10.50;99.90;;;;;;5094514;28;20040;-70
2023/05/24 04:33:35;;;;;;;18.88;5.45;;;10.60;99.90;;;;;;5094750;28;20032;-70
2023/05/24 04:36:02;;;;;;;19.50;5.13;;;10.60;99.90;;;;;;5094361;28;20040;-71
2023/05/24 04:38:28;;;;;;;20.15;4.07;;;10.70;99.90;;;;;;5094444;28;20072;-70
2023/05/24 04:40:55;;;;;;;20.30;4.90;;;10.70;99.90;;;;;;5094466;28;20044;-69
2023/05/24 04:43:21;;;;;;;21.92;5.97;;;10.80;99.90;;;;;;5076053;28;20510;-69
2023/05/24 04:45:47;;;;;;;15.30;4.68;;;10.80;99.90;;;;;;5093899;28;20100;-69
2023/05/24 04:48:12;;;;;;;17.60;4.93;;;10.80;99.90;;;;;;5076193;28;20066;-69
2023/05/24 04:50:38;;;;;;;21.60;4.22;;;10.90;99.90;;;;;;5076031;28;20461;-69
2023/05/24 04:53:04;;;;;;;15.38;4.93;;;10.80;99.90;;;;;;5076184;28;20032;-70
2023/05/24 04:55:31;;;;;;;18.63;5.70;;;10.90;99.90;;;;;;5093985;28;20043;-69
2023/05/24 04:57:57;;;;;;;16.83;4.88;;;10.80;99.90;;;;;;5093813;28;20044;-69
2023/05/24 05:00:22;;;;;;;16.73;3.88;;;10.80;99.90;;;;;;5075698;28;20046;-69
2023/05/24 05:02:48;;;;;;;15.70;3.78;;;10.80;99.90;;;;;;5094035;28;20056;-71
2023/05/24 05:05:14;;;;;;;18.23;5.32;;;10.70;99.90;;;;;;5093908;28;20048;-69
2023/05/24 05:07:40;;;;;;;17.70;5.38;;;10.80;99.90;;;;;;5075638;28;20123;-69
2023/05/24 05:10:07;;;;;;;17.60;5.53;;;10.80;99.90;;;;;;5093806;28;20519;-69
2023/05/24 05:12:32;;;;;;;17.65;4.10;;;10.90;99.90;;;;;;5093801;28;20036;-69
2023/05/24 05:14:58;;;;;;;16.55;4.68;;;10.90;99.90;;;;;;5093433;28;20060;-69
2023/05/24 05:17:23;;;;;;;18.58;4.85;;;11.10;99.90;;;;;;5093661;28;20043;-71
2023/05/24 05:19:49;;;;;;;21.88;4.75;;;11.10;99.90;;;;;;5093605;28;20043;-70
2023/05/24 05:22:15;;;;;;;17.77;4.25;;;11.20;99.90;;;;;;5093555;28;20043;-69
2023/05/24 05:24:40;;;;;;;15.30;3.90;;;11.30;99.90;;;;;;5074231;28;20051;-69
2023/05/24 05:27:06;;;;;;;20.42;4.65;;;11.50;99.90;;;;;;5093074;28;20036;-71
2023/05/24 05:29:32;;;;;;;19.98;5.25;;;11.80;99.90;;;;;;5093247;28;20444;-71
2023/05/24 05:31:57;;;;;;;19.02;4.85;;;12.00;99.90;;;;;;5075302;28;20063;-71
2023/05/24 05:34:23;;;;;;;19.02;5.13;;;12.30;99.90;;;;;;5093489;28;20040;-71
2023/05/24 05:36:48;;;;;;;16.90;5.15;;;12.70;99.90;;;;;;5093058;28;20032;-69
2023/05/24 05:39:14;;;;;;;25.45;7.78;;;12.70;99.90;;;;;;5074919;28;20133;-69
2023/05/24 05:41:42;;;;;;;14.38;4.38;;;12.70;99.90;;;;;;5093146;28;20043;-69
2023/05/24 05:44:09;;;;;;;11.93;4.10;;;12.70;99.90;;;;;;5092631;28;20036;-69
2023/05/24 05:46:34;;;;;;;19.38;4.55;;;12.80;99.90;;;;;;5074680;28;20098;-69
2023/05/24 05:49:00;;;;;;;20.92;4.65;;;12.80;99.90;;;;;;5074695;28;20039;-69
2023/05/24 05:51:25;;;;;;;19.73;5.03;;;12.80;99.90;;;;;;5092995;28;20382;-69
2023/05/24 05:53:51;;;;;;;20.67;4.97;;;12.50;99.90;;;;;;5092973;28;20388;-69
2023/05/24 05:56:16;;;;;;;19.00;3.85;;;12.70;99.90;;;;;;5092644;28;20042;-69
2023/05/24 05:58:42;;;;;;;14.73;5.20;;;12.80;99.90;;;;;;5074545;28;20044;-69
2023/05/24 06:01:08;;;;;;;14.35;4.57;;;13.10;99.90;;;;;;5092932;28;20403;-70
2023/05/24 06:03:33;;;;;;;21.20;4.00;;;13.10;99.90;;;;;;5092740;28;20097;-69
2023/05/24 06:05:59;;;;;;;18.48;4.38;;;13.10;99.90;;;;;;5092242;28;20078;-69
2023/05/24 06:08:25;;;;;;;16.20;4.57;;;13.20;99.90;;;;;;5074329;28;20039;-69
2023/05/24 06:10:50;;;;;;;16.52;4.88;;;13.60;99.90;;;;;;5092694;28;20032;-69
2023/05/24 06:13:16;;;;;;;13.25;3.92;;;13.80;99.90;;;;;;5088703;28;20319;-69
2023/05/24 06:15:43;;;;;;;15.13;4.53;;;13.50;99.90;;;;;;5084388;28;20113;-70
2023/05/24 06:18:08;;;;;;;18.70;4.68;;;13.30;99.90;;;;;;5087045;28;20052;-69
2023/05/24 06:20:35;;;;;;;20.88;5.75;;;13.00;99.90;;;;;;5072210;28;20045;-70
2023/05/24 06:23:01;;;;;;;16.05;4.10;;;13.10;99.90;;;;;;5072044;28;20488;-70
2023/05/24 06:25:29;;;;;;;13.45;4.65;;;13.30;99.90;;;;;;5053949;28;20040;-70
2023/05/24 06:27:55;;;;;;;12.05;3.75;;;13.40;99.90;;;;;;5071677;28;20041;-69
2023/05/24 06:30:21;;;;;;;9.98;4.00;;;13.70;99.90;;;;;;5072202;28;20054;-70
2023/05/24 06:32:46;;;;;;;18.20;5.78;;;14.00;99.90;;;;;;5072069;28;20491;-69
2023/05/24 06:35:12;;;;;;;17.65;4.00;;;13.60;99.90;;;;;;5071751;28;20086;-70
2023/05/24 06:37:38;;;;;;;14.57;3.50;;;13.40;99.90;;;;;;5071457;28;20040;-69
2023/05/24 06:40:08;;;;;;;14.15;4.15;;;13.10;99.90;;;;;;5071892;28;20036;-69
2023/05/24 06:42:35;;;;;;;17.85;4.30;;;13.10;99.90;;;;;;5071777;28;20048;-69
2023/05/24 06:45:01;;;;;;;19.55;4.40;;;13.10;99.90;;;;;;5071859;28;20082;-69
2023/05/24 06:47:26;;;;;;;17.15;3.42;;;13.00;99.90;;;;;;5071467;28;20047;-69
2023/05/24 06:49:52;;;;;;;14.57;3.40;;;12.90;99.90;;;;;;5071700;28;20107;-70
2023/05/24 06:52:18;;;;;;;11.48;3.30;;;12.70;99.90;;;;;;5071734;28;20036;-69
2023/05/24 06:54:43;;;;;;;13.60;4.18;;;12.70;99.90;;;;;;5071629;28;20036;-69
2023/05/24 06:57:09;;;;;;;9.25;3.25;;;12.80;99.90;;;;;;5071258;28;20043;-69
2023/05/24 06:59:35;;;;;;;11.23;3.55;;;13.10;99.90;;;;;;5071679;28;20499;-69
2023/05/24 07:02:00;;;;;;;11.98;2.90;;;13.70;99.90;;;;;;5071739;28;20064;-69
2023/05/24 07:04:27;;;;;;;11.68;3.45;;;14.20;99.90;;;;;;5071757;28;20439;-69
2023/05/24 07:06:52;;;;;;;13.68;3.85;;;14.50;99.90;;;;;;5072850;28;20036;-69
2023/05/24 07:09:18;;;;;;;9.57;2.83;;;14.70;99.90;;;;;;5091382;28;20549;-68
2023/05/24 07:11:44;;;;;;;12.63;3.10;;;15.10;99.90;;;;;;5073293;28;20036;-70
2023/05/24 07:14:10;;;;;;;10.57;3.92;;;15.60;99.90;;;;;;5071728;28;20081;-68
2023/05/24 07:16:36;;;;;;;13.40;3.28;;;16.50;99.90;;;;;;5071206;28;20040;-69
2023/05/24 07:19:01;;;;;;;10.75;3.05;;;16.80;99.90;;;;;;5070671;28;20564;-69
2023/05/24 07:21:27;;;;;;;11.25;3.08;;;17.10;99.80;;;;;;5071249;28;20050;-70
2023/05/24 07:23:52;;;;;;;7.90;3.15;;;16.90;96.90;;;;;;5071385;28;20040;-70
2023/05/24 07:26:18;;;;;;;14.32;3.45;;;17.20;97.80;;;;;;5052964;28;20797;-69
2023/05/24 07:28:44;;;;;;;12.23;2.80;;;16.80;96.90;;;;;;5078529;28;20039;-69
2023/05/24 07:31:09;;;;;;;12.15;3.25;;;16.80;96.50;;;;;;5073371;28;20040;-69
2023/05/24 07:33:36;;;;;;;11.25;2.67;;;16.30;97.30;;;;;;5091661;28;20415;-69
2023/05/24 07:36:03;;;;;;;9.35;2.92;;;16.20;95.80;;;;;;5091413;28;20044;-69
2023/05/24 07:38:29;;;;;;;6.97;2.58;;;16.40;95.30;;;;;;5090692;28;20086;-68
2023/05/24 07:41:05;;;;;;;10.18;3.05;;;16.20;95.10;;;;;;5091160;28;20055;-68
2023/05/24 07:43:30;;;;;;;8.90;2.67;;;16.50;94.60;;;;;;5073671;28;20040;-69
2023/05/24 07:45:56;;;;;;;12.60;3.30;;;16.60;95.20;;;;;;5091222;28;20111;-69
2023/05/24 07:48:22;;;;;;;10.48;2.90;;;16.70;94.40;;;;;;5094122;28;20555;-69
2023/05/24 07:50:49;;;;;;;11.00;2.75;;;16.30;94.90;;;;;;5094727;28;20039;-69
2023/05/24 07:53:15;;;;;;;11.55;3.78;;;15.90;96.40;;;;;;5095168;28;20048;-69
2023/05/24 07:55:40;;;;;;;12.55;3.05;;;15.40;97.00;;;;;;5095209;28;20036;-68
2023/05/24 07:58:06;;;;;;;9.90;2.97;;;14.70;98.10;;;;;;5095128;28;20036;-69
2023/05/24 08:00:32;;;;;;;9.20;3.35;;;14.60;98.90;;;;;;5095021;28;20039;-69
2023/05/24 08:02:58;;;;;;;10.48;3.65;;;15.10;99.90;;;;;;5095047;28;20517;-68
2023/05/24 08:05:24;;;;;;;8.25;2.72;;;15.30;98.90;;;;;;5094770;28;20044;-69
2023/05/24 08:07:51;;;;;;;12.43;3.55;;;15.50;98.30;;;;;;5076213;28;20036;-69
2023/05/24 08:10:17;;;;;;;11.73;3.15;;;15.20;97.90;;;;;;5093141;28;20136;-69
2023/05/24 08:12:43;;;;;;;7.30;2.90;;;15.20;98.20;;;;;;5095052;28;20483;-69
2023/05/24 08:15:09;;;;;;;14.55;3.10;;;14.90;98.80;;;;;;5094978;28;20033;-69
2023/05/24 08:17:35;;;;;;;11.27;3.65;;;15.00;99.40;;;;;;5076308;28;20072;-68
2023/05/24 08:20:05;;;;;;;9.75;2.90;;;14.60;99.90;;;;;;5091844;28;20044;-69
2023/05/24 08:22:30;;;;;;;9.18;3.10;;;14.50;99.90;;;;;;5094806;28;20043;-69
2023/05/24 08:24:56;;;;;;;9.45;2.80;;;14.40;99.90;;;;;;5095109;28;20036;-69
2023/05/24 08:27:22;;;;;;;12.63;2.55;;;14.30;99.90;;;;;;5094512;28;20036;-68
2023/05/24 08:29:48;;;;;;;12.75;3.63;;;14.20;99.80;;;;;;5094475;28;20071;-69
2023/05/24 08:32:13;;;;;;;8.90;2.70;;;14.40;99.90;;;;;;5094626;28;20562;-68
2023/05/24 08:34:39;;;;;;;9.77;2.17;;;15.20;99.60;;;;;;5094506;28;20510;-68
2023/05/24 08:37:04;;;;;;;9.27;3.20;;;15.50;98.10;;;;;;5094155;28;20461;-68
2023/05/24 08:39:30;;;;;;;14.85;3.83;;;16.30;97.70;;;;;;5094478;28;20043;-69
2023/05/24 08:41:57;;;;;;;9.48;3.30;;;16.50;96.70;;;;;;5094476;28;20115;-68
2023/05/24 08:44:23;;;;;;;11.60;2.78;;;15.60;96.20;;;;;;5094352;28;20040;-69
2023/05/24 08:46:50;;;;;;;7.80;2.40;;;15.90;96.10;;;;;;5093965;28;20044;-69
2023/05/24 08:49:16;;;;;;;12.80;3.22;;;16.50;95.80;;;;;;5094160;28;20039;-69
2023/05/24 08:51:43;;;;;;;11.48;3.72;;;17.30;95.70;;;;;;5093867;28;20085;-69
2023/05/24 08:54:10;;;;;;;10.20;2.45;;;16.60;94.30;;;;;;5094135;28;20043;-69
2023/05/24 08:56:38;;;;;;;12.50;2.80;;;16.30;95.10;;;;;;5093692;28;20089;-68
2023/05/24 08:59:05;;;;;;;9.43;2.90;;;16.20;95.50;;;;;;5093648;28;20044;-68
2023/05/24 09:01:31;;;;;;;7.35;2.70;;;16.10;94.60;;;;;;5093208;28;20040;-68
2023/05/24 09:03:59;;;;;;;8.45;2.55;;;15.60;95.40;;;;;;5092687;28;20055;-68
2023/05/24 09:06:25;;;;;;;10.65;2.58;;;15.60;96.00;;;;;;5093006;28;20067;-68
2023/05/24 09:08:52;;;;;;;6.90;2.72;;;15.50;97.30;;;;;;5093462;28;20028;-68
2023/05/24 09:11:21;;;;;;;8.18;2.92;;;15.50;97.60;;;;;;5093989;28;20437;-68
2023/05/24 09:13:47;;;;;;;7.72;2.53;;;15.50;97.30;;;;;;5093689;28;20047;-68
2023/05/24 09:16:14;;;;;;;8.60;2.40;;;15.40;97.10;;;;;;5092133;28;20079;-68
2023/05/24 09:18:41;;;;;;;10.10;3.65;;;15.60;97.30;;;;;;5093292;28;20044;-68
2023/05/24 09:21:08;;;;;;;7.78;2.65;;;15.80;97.40;;;;;;5093847;28;20035;-68
2023/05/24 09:23:35;;;;;;;10.50;3.47;;;15.70;97.00;;;;;;5093822;28;20044;-68
2023/05/24 09:26:06;;;;;;;7.15;2.50;;;15.40;97.10;;;;;;5093219;28;20158;-68
2023/05/24 09:28:32;;;;;;;13.90;3.20;;;15.40;98.20;;;;;;5093302;28;20404;-68
2023/05/24 09:31:00;;;;;;;10.45;3.25;;;15.00;97.70;;;;;;5058514;28;20047;-68
2023/05/24 09:33:29;;;;;;;9.63;3.40;;;14.90;98.10;;;;;;5093291;28;20411;-67
2023/05/24 09:36:00;;;;;;;11.95;3.15;;;15.00;98.60;;;;;;5093177;28;20040;-68
2023/05/24 09:38:27;;;;;;;20.30;4.20;;;15.00;98.90;;;;;;5093234;28;20043;-68
2023/05/24 09:41:07;;;;;;;9.70;3.47;;;15.10;99.30;;;;;;5093215;28;20050;-69
2023/05/24 09:43:33;;;;;;;9.70;2.80;;;14.90;99.30;;;;;;5092998;28;20507;-68
2023/05/24 09:46:02;;;;;;;12.88;4.38;;;14.90;99.70;;;;;;5092179;28;20143;-68
2023/05/24 09:48:28;;;;;;;8.52;2.78;;;15.30;99.90;;;;;;5092913;28;20044;-68
2023/05/24 09:51:06;;;;;;;12.75;2.95;;;15.60;99.50;;;;;;5093079;28;20035;-68
2023/05/24 09:53:35;;;;;;;7.63;2.72;;;15.70;98.90;;;;;;5092988;28;20036;-68
2023/05/24 09:56:04;;;;;;;6.40;2.92;;;15.80;99.00;;;;;;5091742;28;20036;-68
2023/05/24 09:58:33;;;;;;;8.27;2.78;;;15.80;99.10;;;;;;5092252;28;20040;-68
2023/05/24 10:01:06;;;;;;;10.95;2.50;;;15.40;98.90;;;;;;5092906;28;20473;-68
2023/05/24 10:03:33;;;;;;;13.60;3.20;;;15.20;99.60;;;;;;5092327;28;20507;-68
2023/05/24 10:05:59;;;;;;;14.90;2.55;;;15.10;99.90;;;;;;5092218;28;20077;-69
2023/05/24 10:08:25;;;;;;;11.02;2.80;;;14.80;99.90;;;;;;5092208;28;20040;-68
2023/05/24 10:10:51;;;;;;;9.77;2.85;;;15.10;99.90;;;;;;5091999;28;20040;-68
2023/05/24 10:13:17;;;;;;;9.25;2.92;;;15.00;99.90;;;;;;5092473;28;20453;-69
2023/05/24 10:15:44;;;;;;;9.70;2.80;;;14.90;99.90;;;;;;5092490;28;20089;-67
2023/05/24 10:18:09;;;;;;;9.68;3.10;;;15.00;99.90;;;;;;5089107;28;20036;-67
2023/05/24 10:20:35;;;;;;;10.13;2.70;;;15.40;99.90;;;;;;5091053;28;20115;-68
2023/05/24 10:23:05;;;;;;;8.60;2.53;;;15.60;99.40;;;;;;5072009;28;20032;-68
2023/05/24 10:25:34;;;;;;;11.68;2.80;;;15.50;98.50;;;;;;5081155;28;20044;-70
2023/05/24 10:28:08;;;;;;;7.95;3.05;;;15.50;98.20;;;;;;5083601;28;20047;-70
2023/05/24 10:30:43;;;;;;;9.48;2.85;;;15.60;99.10;;;;;;5091841;28;20441;-70
2023/05/24 10:33:12;;;;;;;9.02;2.47;;;15.50;99.20;;;;;;5074267;28;20117;-70
2023/05/24 10:35:39;;;;;;;8.15;2.65;;;15.50;99.10;;;;;;5057184;28;20048;-71
2023/05/24 10:38:07;;;;;;;5.80;2.40;;;15.20;98.00;;;;;;5091852;28;20073;-70
2023/05/24 10:40:34;;;;;;;7.88;2.58;;;15.20;97.10;;;;;;5074025;28;20499;-70
2023/05/24 10:43:05;;;;;;;11.02;2.90;;;15.80;96.50;;;;;;5074089;28;20040;-70
2023/05/24 10:45:38;;;;;;;8.52;2.90;;;15.70;96.40;;;;;;5092000;28;20115;-71
2023/05/24 10:48:14;;;;;;;12.98;3.85;;;15.70;97.90;;;;;;5092033;28;20036;-70
2023/05/24 10:50:40;;;;;;;8.82;2.92;;;14.90;98.10;;;;;;5092323;28;20032;-71
2023/05/24 10:53:37;;;;;;;9.77;2.30;;;14.60;99.00;;;;;;5073907;28;20426;-70
2023/05/24 10:56:08;;;;;;;10.13;2.70;;;14.40;99.90;;;;;;5084299;28;20144;-70
2023/05/24 10:58:36;;;;;;;14.55;3.58;;;14.60;99.90;;;;;;5091836;28;20040;-70
2023/05/24 11:01:02;;;;;;;10.30;2.78;;;14.70;99.90;;;;;;5074208;28;20035;-70
2023/05/24 11:03:34;;;;;;;5.68;2.55;;;14.90;99.80;;;;;;5092114;28;20043;-70
2023/05/24 11:06:00;;;;;;;9.23;2.67;;;14.60;98.60;;;;;;5091452;28;20534;-70
2023/05/24 11:08:30;;;;;;;9.38;2.13;;;14.80;99.50;;;;;;5091830;28;20040;-70
2023/05/24 11:11:09;;;;;;;11.35;2.90;;;14.70;99.90;;;;;;5091869;28;20036;-70
2023/05/24 11:13:38;;;;;;;11.52;3.10;;;14.70;99.90;;;;;;5092045;28;20090;-70
2023/05/24 11:16:05;;;;;;;10.93;2.67;;;15.00;99.90;;;;;;5073668;28;20561;-70
2023/05/24 11:18:31;;;;;;;11.65;3.00;;;15.20;99.90;;;;;;5057028;28;20051;-70
2023/05/24 11:21:00;;;;;;;10.68;3.08;;;15.10;99.90;;;;;;5073805;28;20032;-71
2023/05/24 11:23:26;;;;;;;15.35;3.75;;;15.30;99.90;;;;;;5094957;28;20032;-70
2023/05/24 11:25:52;;;;;;;12.70;2.80;;;15.40;99.90;;;;;;5077464;28;20040;-70
2023/05/24 11:28:18;;;;;;;8.07;2.50;;;15.10;99.90;;;;;;5096082;28;20043;-70
2023/05/24 11:30:47;;;;;;;12.50;3.92;;;15.30;99.90;;;;;;5095981;28;20043;-70
2023/05/24 11:33:14;;;;;;;8.93;2.92;;;15.00;99.90;;;;;;5095819;28;20115;-71
2023/05/24 11:35:40;;;;;;;8.93;2.97;;;15.10;99.90;;;;;;5095573;28;20040;-70
2023/05/24 11:38:13;;;;;;;19.75;3.67;;;15.00;99.90;;;;;;5077333;28;20544;-71
2023/05/24 11:40:44;;;;;;;12.18;3.38;;;15.10;99.90;;;;;;5095721;28;20457;-70
2023/05/24 11:43:11;;;;;;;13.38;5.78;;;15.30;99.90;;;;;;5095632;28;20040;-70
2023/05/24 11:45:38;;;;;;;14.52;2.95;;;15.80;99.90;;;;;;5077047;28;20040;-70
2023/05/24 11:48:05;;;;;;;10.18;3.15;;;15.60;99.90;;;;;;5095481;28;20409;-70
2023/05/24 11:50:30;;;;;;;13.30;3.00;;;15.00;99.90;;;;;;5095482;28;20422;-70
2023/05/24 11:53:02;;;;;;;12.63;2.90;;;14.80;99.90;;;;;;5095373;28;20043;-70
2023/05/24 11:55:27;;;;;;;13.13;3.47;;;14.80;99.90;;;;;;5077676;28;20046;-70
2023/05/24 11:58:00;;;;;;;15.40;2.90;;;14.60;99.90;;;;;;5095159;28;20108;-70
2023/05/24 12:00:27;;;;;;;7.28;2.33;;;14.70;99.90;;;;;;5095421;28;20128;-71
2023/05/24 12:02:56;;;;;;;10.98;2.85;;;14.60;99.90;;;;;;5095207;28;20032;-70
2023/05/24 12:05:22;;;;;;;13.55;3.80;;;14.80;99.90;;;;;;5094837;28;20435;-70
2023/05/24 12:07:58;;;;;;;14.57;3.30;;;14.80;99.90;;;;;;5095185;28;20044;-71
2023/05/24 12:10:24;;;;;;;9.30;3.22;;;15.00;99.90;;;;;;5095164;28;20068;-70
2023/05/24 12:12:49;;;;;;;9.27;2.53;;;15.10;99.90;;;;;;5077009;28;20098;-70
2023/05/24 12:15:17;;;;;;;11.30;3.33;;;15.10;99.90;;;;;;5094999;28;20028;-70
2023/05/24 12:17:43;;;;;;;8.10;3.05;;;15.10;99.90;;;;;;5094539;28;20036;-70
2023/05/24 12:20:11;;;;;;;12.18;2.83;;;14.80;99.90;;;;;;5076605;28;20490;-70
2023/05/24 12:22:36;;;;;;;10.40;3.08;;;14.80;99.90;;;;;;5094958;28;20067;-70
2023/05/24 12:25:02;;;;;;;8.43;2.53;;;14.90;99.90;;;;;;5094846;28;20067;-70
2023/05/24 12:27:30;;;;;;;12.88;3.25;;;15.00;99.90;;;;;;5094316;28;20482;-70
2023/05/24 12:29:55;;;;;;;8.55;3.20;;;14.90;99.90;;;;;;5076761;28;20441;-70
2023/05/24 12:32:21;;;;;;;7.95;2.85;;;14.80;99.90;;;;;;5094474;28;20245;-70
2023/05/24 12:34:48;;;;;;;11.05;2.40;;;14.70;99.90;;;;;;5094350;28;20050;-71
2023/05/24 12:37:14;;;;;;;9.20;3.17;;;14.70;99.90;;;;;;5094508;28;20080;-70
2023/05/24 12:39:41;;;;;;;10.65;2.75;;;14.80;99.90;;;;;;5094422;28;20516;-70
2023/05/24 12:42:07;;;;;;;14.45;2.88;;;14.90;99.90;;;;;;5094472;28;20040;-70